createdAt,value
2019-04-28T00:05:11.374Z,12.10
2019-04-28T00:20:37.065Z,12.09
2019-04-28T00:35:46.655Z,11.89
2019-04-28T00:50:53.882Z,11.89
2019-04-28T01:06:01.873Z,11.83
2019-04-28T01:21:10.679Z,11.95
2019-04-28T01:36:17.780Z,11.85
2019-04-28T01:51:24.848Z,11.91
2019-04-28T02:06:31.957Z,11.78
2019-04-28T02:21:42.877Z,11.86
2019-04-28T02:36:53.845Z,11.77
2019-04-28T02:52:17.465Z,11.77
2019-04-28T03:07:27.017Z,11.71
2019-04-28T03:22:34.145Z,11.76
2019-04-28T03:37:43.583Z,11.62
2019-04-28T03:52:51.264Z,11.65
2019-04-28T04:08:00.590Z,11.60
2019-04-28T04:23:07.795Z,11.63
2019-04-28T04:38:16.550Z,11.64
2019-04-28T04:53:23.326Z,11.75
2019-04-28T05:08:31.090Z,11.71
2019-04-28T05:23:42.639Z,11.92
2019-04-28T05:38:49.740Z,11.92
2019-04-28T05:54:01.408Z,11.66
2019-04-28T06:09:10.290Z,11.66
2019-04-28T06:24:17.058Z,11.61
2019-04-28T06:39:24.914Z,11.44
2019-04-28T06:54:32.043Z,11.59
2019-04-28T07:09:39.790Z,11.64
2019-04-28T07:24:46.623Z,11.79
2019-04-28T07:39:56.678Z,11.63
2019-04-28T07:55:02.750Z,11.67
2019-04-28T08:10:10.962Z,11.89
2019-04-28T08:25:18.061Z,12.06
2019-04-28T08:40:25.502Z,12.05
2019-04-28T08:55:34.750Z,12.19
2019-04-28T09:10:43.052Z,12.01
2019-04-28T09:25:51.274Z,12.07
2019-04-28T09:40:58.497Z,12.08
2019-04-28T09:56:08.099Z,12.22
2019-04-28T10:11:15.349Z,12.20
2019-04-28T10:26:22.605Z,12.48
2019-04-28T10:41:33.488Z,12.57
2019-04-28T10:56:40.707Z,12.62
2019-04-28T11:11:48.198Z,12.50
2019-04-28T11:26:55.456Z,12.79
2019-04-28T11:42:02.854Z,12.75
2019-04-28T11:57:15.977Z,12.50
2019-04-28T12:12:26.272Z,12.43
2019-04-28T12:43:01.027Z,12.43
2019-04-28T12:58:08.478Z,12.30
2019-04-28T13:13:16.823Z,12.05
2019-04-28T13:28:25.341Z,12.08
2019-04-28T13:43:31.427Z,12.03
2019-04-28T13:58:40.139Z,12.11
2019-04-28T14:13:47.346Z,11.97
2019-04-28T14:28:56.269Z,12.09
2019-04-28T14:44:05.925Z,11.97
2019-04-28T14:59:14.061Z,11.86
2019-04-28T15:14:21.420Z,11.60
2019-04-28T15:29:28.530Z,11.27
2019-04-28T15:44:38.311Z,11.02
2019-04-28T15:59:47.700Z,11.12
2019-04-28T16:28:47.215Z,11.26
2019-04-28T16:59:42.360Z,11.53
2019-04-28T17:14:50.032Z,11.22
2019-04-28T17:30:17.509Z,10.90
2019-04-28T17:45:26.431Z,10.79
2019-04-28T18:00:33.513Z,10.67
2019-04-28T18:15:57.281Z,10.74
2019-04-28T18:31:07.331Z,10.60
2019-04-28T18:46:17.720Z,10.59
2019-04-28T19:01:32.431Z,10.40
2019-04-28T19:17:00.674Z,10.38
2019-04-28T19:32:08.717Z,10.20
2019-04-28T19:47:18.121Z,10.32
2019-04-28T20:02:43.051Z,10.10
2019-04-28T20:17:50.291Z,10.08
2019-04-28T20:50:28.789Z,10.21
2019-04-28T21:05:36.581Z,10.11
2019-04-28T21:20:44.310Z,10.24
2019-04-28T21:36:11.835Z,10.31
2019-04-28T21:51:21.827Z,10.31
2019-04-28T22:06:28.851Z,10.21
2019-04-28T22:21:36.807Z,10.14
2019-04-28T22:36:45.750Z,10.20
2019-04-28T22:51:52.913Z,10.12
2019-04-28T23:07:01.181Z,10.19
2019-04-28T23:22:09.113Z,10.14
2019-04-28T23:37:15.926Z,10.10
2019-04-28T23:52:24.684Z,10.04
